Time;durP1;ratioP1;P1;durP2;ratioP2;P2;SDS_P1;SDS_P2;PMS_P1;PMS_P2;Temp;Humidity;BMP_temperature;BMP_pressure;BME280_temperature;BME280_humidity;BME280_pressure;Samples;Min_cycle;Max_cycle;Signal;HPM_P1;HPM_P2
2023/04/09 00:01:15;;;;;;;13.60;12.40;;;6.90;99.90;;;;;;5077089;28;20899;-77
2023/04/09 00:03:40;;;;;;;12.75;11.55;;;6.90;99.90;;;;;;5074117;28;20769;-77
2023/04/09 00:06:06;;;;;;;13.70;12.40;;;6.90;99.90;;;;;;5090760;28;20398;-77
2023/04/09 00:08:32;;;;;;;13.33;12.13;;;7.00;99.90;;;;;;5091801;28;20393;-78
2023/04/09 00:10:58;;;;;;;12.70;11.60;;;6.90;99.90;;;;;;5091765;28;20469;-78
2023/04/09 00:13:24;;;;;;;13.75;12.35;;;6.90;99.90;;;;;;5090964;28;20523;-78
2023/04/09 00:15:50;;;;;;;14.23;12.93;;;6.90;99.90;;;;;;5071457;28;20391;-77
2023/04/09 00:18:15;;;;;;;13.03;11.87;;;6.90;99.90;;;;;;5091599;28;20439;-77
2023/04/09 00:20:42;;;;;;;13.40;12.10;;;6.80;99.90;;;;;;5091766;28;20833;-79
2023/04/09 00:23:07;;;;;;;14.35;11.82;;;6.70;99.90;;;;;;5091512;28;20386;-77
2023/04/09 00:25:33;;;;;;;14.18;12.77;;;6.70;99.90;;;;;;5074882;28;20401;-78
2023/04/09 00:27:59;;;;;;;12.98;11.77;;;6.70;99.90;;;;;;5101836;28;20392;-78
2023/04/09 00:30:26;;;;;;;13.55;12.25;;;6.60;99.90;;;;;;5099134;28;20408;-79
2023/04/09 00:32:52;;;;;;;13.20;12.00;;;6.70;99.90;;;;;;5099732;28;20859;-78
2023/04/09 00:35:18;;;;;;;13.73;12.40;;;6.70;99.90;;;;;;5098195;28;20402;-79
2023/04/09 00:37:43;;;;;;;13.90;12.60;;;6.70;99.90;;;;;;5075862;28;20390;-79
2023/04/09 00:40:09;;;;;;;14.50;13.10;;;6.60;99.90;;;;;;5092227;28;20461;-80
2023/04/09 00:42:36;;;;;;;14.05;12.82;;;6.60;99.90;;;;;;5092201;28;20378;-79
2023/04/09 00:45:05;;;;;;;14.30;12.90;;;6.50;99.90;;;;;;5091792;28;20814;-79
2023/04/09 00:47:31;;;;;;;12.97;11.87;;;6.40;99.90;;;;;;5073368;28;20817;-79
2023/04/09 00:49:57;;;;;;;13.60;12.23;;;6.40;99.90;;;;;;5074092;28;20393;-79
2023/04/09 00:52:23;;;;;;;12.77;11.63;;;6.30;99.90;;;;;;5092181;28;20805;-79
2023/04/09 00:54:50;;;;;;;12.70;11.50;;;6.30;99.90;;;;;;5091865;28;20440;-79
2023/04/09 00:57:16;;;;;;;12.98;11.77;;;6.10;99.90;;;;;;5091343;28;20806;-79
2023/04/09 00:59:45;;;;;;;13.03;11.90;;;6.10;99.90;;;;;;5073702;28;20378;-79
2023/04/09 01:02:11;;;;;;;13.00;11.70;;;6.00;99.90;;;;;;5091763;28;20404;-79
2023/04/09 01:04:39;;;;;;;11.98;10.88;;;6.00;99.90;;;;;;5091257;28;20883;-79
2023/04/09 01:07:19;;;;;;;12.20;11.00;;;5.90;99.90;;;;;;5090939;28;20410;-79
2023/04/09 01:10:00;;;;;;;12.82;10.40;;;6.10;99.90;;;;;;5091685;28;20886;-79
2023/04/09 01:12:34;;;;;;;12.00;10.80;;;6.00;99.90;;;;;;5091716;28;20411;-79
2023/04/09 01:15:10;;;;;;;12.00;10.80;;;5.90;99.90;;;;;;5091441;28;20622;-79
2023/04/09 01:18:14;;;;;;;11.60;10.40;;;5.90;99.90;;;;;;5072563;28;20502;-79
2023/04/09 01:20:47;;;;;;;11.70;10.50;;;5.90;99.90;;;;;;5002013;28;20885;-79
2023/04/09 01:23:17;;;;;;;11.35;10.15;;;5.90;99.90;;;;;;5092880;28;20450;-79
2023/04/09 01:26:09;;;;;;;10.53;9.53;;;5.80;99.90;;;;;;5095156;28;20441;-79
2023/04/09 01:28:47;;;;;;;11.13;10.13;;;5.80;99.90;;;;;;5095425;28;20901;-79
2023/04/09 01:31:17;;;;;;;10.68;9.77;;;5.70;99.90;;;;;;5094626;28;20378;-77
2023/04/09 01:33:43;;;;;;;11.10;9.50;;;5.80;99.90;;;;;;5094310;28;20397;-80
2023/04/09 01:36:10;;;;;;;10.93;9.83;;;5.80;99.90;;;;;;5093707;28;20400;-77
2023/04/09 01:38:41;;;;;;;10.60;9.23;;;5.80;99.90;;;;;;5094069;28;20382;-77
2023/04/09 01:41:10;;;;;;;10.38;9.38;;;5.80;99.90;;;;;;5075818;28;20409;-77
2023/04/09 01:43:36;;;;;;;10.15;9.18;;;5.70;99.90;;;;;;5095674;28;20378;-77
2023/04/09 01:46:03;;;;;;;10.10;9.20;;;5.60;99.90;;;;;;5094286;28;20414;-77
2023/04/09 01:48:30;;;;;;;11.02;8.85;;;5.70;99.90;;;;;;5094953;28;20377;-80
2023/04/09 01:50:57;;;;;;;10.85;9.85;;;5.70;99.90;;;;;;5093813;28;20725;-78
2023/04/09 01:53:23;;;;;;;10.63;9.63;;;5.60;99.90;;;;;;5094568;28;20377;-78
2023/04/09 01:55:48;;;;;;;10.35;9.35;;;5.60;99.90;;;;;;5091790;28;20388;-78
2023/04/09 01:58:14;;;;;;;10.82;9.82;;;5.70;99.90;;;;;;5094476;28;20435;-78
2023/04/09 02:00:46;;;;;;;9.98;9.07;;;5.70;99.90;;;;;;5094437;28;20385;-77
2023/04/09 02:03:29;;;;;;;10.57;9.57;;;5.60;99.90;;;;;;5094045;28;20381;-77
2023/04/09 02:06:14;;;;;;;9.98;9.07;;;5.50;99.90;;;;;;5093348;28;20462;-77
2023/04/09 02:08:45;;;;;;;11.00;9.90;;;5.50;99.90;;;;;;5093996;28;20374;-77
2023/04/09 02:11:11;;;;;;;10.70;9.60;;;5.50;99.90;;;;;;5093724;28;20435;-77
2023/04/09 02:13:39;;;;;;;11.32;10.25;;;5.50;99.90;;;;;;5093988;28;20511;-78
2023/04/09 02:18:32;;;;;;;10.50;9.50;;;5.20;99.90;;;;;;5016943;28;20444;-83
2023/04/09 02:20:59;;;;;;;10.33;9.33;;;5.30;99.90;;;;;;5019849;28;20385;-83
2023/04/09 02:23:26;;;;;;;10.77;9.77;;;5.20;99.90;;;;;;5018917;28;20373;-83
2023/04/09 02:25:52;;;;;;;11.13;10.13;;;5.20;99.90;;;;;;5018779;28;20467;-83
2023/04/09 02:28:18;;;;;;;11.27;10.07;;;5.10;99.90;;;;;;5016222;28;20397;-83
2023/04/09 02:30:43;;;;;;;11.07;9.98;;;5.20;99.90;;;;;;4999548;28;20886;-83
2023/04/09 02:33:09;;;;;;;10.95;9.95;;;5.10;99.90;;;;;;5016895;28;20464;-83
2023/04/09 02:35:34;;;;;;;10.32;9.43;;;5.10;99.90;;;;;;5016815;28;20731;-83
2023/04/09 02:38:00;;;;;;;10.60;9.60;;;5.10;99.90;;;;;;5017079;28;20385;-83
2023/04/09 02:40:26;;;;;;;10.57;9.68;;;5.20;99.90;;;;;;4999552;28;20400;-83
2023/04/09 02:42:52;;;;;;;11.50;10.40;;;5.10;99.90;;;;;;5016736;28;20395;-83
2023/04/09 02:45:17;;;;;;;10.90;9.90;;;5.10;99.90;;;;;;5018286;28;20397;-84
2023/04/09 02:47:43;;;;;;;10.87;9.83;;;5.00;99.90;;;;;;4998884;28;20460;-83
2023/04/09 02:50:09;;;;;;;10.80;9.80;;;5.00;99.90;;;;;;5016742;28;20389;-83
2023/04/09 02:52:34;;;;;;;10.85;9.85;;;4.90;99.90;;;;;;4999937;28;20431;-83
2023/04/09 02:55:00;;;;;;;10.60;9.60;;;5.00;99.90;;;;;;5000294;28;20397;-83
2023/04/09 02:57:25;;;;;;;11.18;10.07;;;5.00;99.90;;;;;;5016519;28;20389;-83
2023/04/09 02:59:51;;;;;;;10.77;9.77;;;5.00;99.90;;;;;;5017581;28;20472;-83
2023/04/09 03:02:16;;;;;;;11.85;10.65;;;5.00;99.90;;;;;;5000565;28;20381;-83
2023/04/09 03:04:42;;;;;;;11.20;10.20;;;5.00;99.90;;;;;;5000751;28;20396;-83
2023/04/09 03:07:07;;;;;;;10.67;9.67;;;5.00;99.90;;;;;;5015687;28;20963;-83
2023/04/09 03:09:33;;;;;;;10.70;9.50;;;5.00;99.90;;;;;;4999669;28;20416;-83
2023/04/09 03:11:58;;;;;;;9.50;8.70;;;4.80;99.90;;;;;;5000093;28;20396;-83
2023/04/09 03:14:24;;;;;;;11.20;10.10;;;4.70;99.90;;;;;;5016979;28;20385;-83
2023/04/09 03:16:49;;;;;;;10.70;9.60;;;4.70;99.90;;;;;;5013035;28;20494;-83
2023/04/09 03:19:15;;;;;;;10.90;9.77;;;4.70;99.90;;;;;;5018441;28;20885;-83
2023/04/09 03:21:41;;;;;;;11.18;10.10;;;4.60;99.90;;;;;;5019173;28;20397;-83
2023/04/09 03:24:07;;;;;;;11.33;10.23;;;4.60;99.90;;;;;;5041715;28;20904;-83
2023/04/09 03:26:35;;;;;;;10.67;9.60;;;4.70;99.90;;;;;;5044033;28;20442;-83
2023/04/09 03:29:01;;;;;;;11.98;10.77;;;4.60;99.90;;;;;;5039376;28;20788;-83
2023/04/09 03:31:27;;;;;;;12.05;10.70;;;4.60;99.90;;;;;;5039677;28;20452;-83
2023/04/09 03:33:52;;;;;;;11.50;10.30;;;4.70;99.90;;;;;;5039214;28;20395;-83
2023/04/09 03:36:18;;;;;;;10.97;9.67;;;4.70;99.90;;;;;;5037687;28;20393;-83
2023/04/09 03:38:43;;;;;;;11.63;10.53;;;4.60;99.90;;;;;;5038500;28;20413;-83
2023/04/09 03:41:09;;;;;;;10.90;9.80;;;4.50;99.90;;;;;;5038769;28;20440;-83
2023/04/09 03:43:35;;;;;;;11.80;10.60;;;4.60;99.90;;;;;;5019950;28;20442;-83
2023/04/09 03:46:00;;;;;;;11.90;10.80;;;4.60;99.90;;;;;;5035677;28;20442;-83
2023/04/09 03:48:26;;;;;;;11.83;10.73;;;4.70;99.90;;;;;;5019659;28;20399;-84
2023/04/09 03:50:52;;;;;;;10.73;9.63;;;4.60;99.90;;;;;;5038693;28;20393;-83
2023/04/09 03:53:18;;;;;;;11.75;10.65;;;4.70;99.90;;;;;;5037487;28;20419;-83
2023/04/09 03:55:43;;;;;;;11.33;10.13;;;4.60;99.90;;;;;;5036619;28;20823;-83
2023/04/09 03:58:09;;;;;;;11.88;10.68;;;4.60;99.90;;;;;;5055965;28;20426;-83
2023/04/09 04:00:35;;;;;;;11.93;10.47;;;4.50;99.90;;;;;;5055943;28;20430;-83
2023/04/09 04:03:00;;;;;;;11.60;10.50;;;4.60;99.90;;;;;;5055608;28;20390;-83
2023/04/09 04:05:26;;;;;;;11.87;10.57;;;4.40;99.90;;;;;;5041933;28;20403;-84
2023/04/09 04:07:51;;;;;;;10.80;9.80;;;4.30;99.90;;;;;;5037498;28;20738;-83
2023/04/09 04:10:17;;;;;;;11.25;10.25;;;4.30;99.90;;;;;;5039018;28;20387;-83
2023/04/09 04:12:42;;;;;;;11.60;10.50;;;4.30;99.90;;;;;;5020913;28;20383;-83
2023/04/09 04:15:08;;;;;;;10.73;9.68;;;4.20;99.90;;;;;;5036416;28;20454;-83
2023/04/09 04:17:34;;;;;;;11.93;10.60;;;4.20;99.90;;;;;;5015961;28;20393;-82
2023/04/09 04:20:00;;;;;;;11.20;10.20;;;4.30;99.90;;;;;;5001609;28;20413;-83
2023/04/09 04:22:25;;;;;;;11.53;10.43;;;4.30;99.90;;;;;;5018522;28;20674;-82
2023/04/09 04:24:51;;;;;;;11.27;10.10;;;4.20;99.90;;;;;;5002892;28;20473;-83
2023/04/09 04:27:16;;;;;;;12.00;10.80;;;4.20;99.90;;;;;;4999544;28;20412;-83
2023/04/09 04:29:42;;;;;;;11.40;10.20;;;4.40;99.90;;;;;;5018305;28;20463;-83
2023/04/09 04:32:07;;;;;;;12.60;11.40;;;4.30;99.90;;;;;;5001225;28;20377;-83
2023/04/09 04:34:33;;;;;;;12.50;10.88;;;4.20;99.90;;;;;;5018199;28;20384;-83
2023/04/09 04:36:58;;;;;;;12.27;10.90;;;4.20;99.90;;;;;;5016506;28;20450;-82
2023/04/09 04:39:24;;;;;;;13.43;12.02;;;4.20;99.90;;;;;;5000333;28;20949;-82
2023/04/09 04:41:50;;;;;;;12.02;10.82;;;4.30;99.90;;;;;;5017736;28;20401;-83
2023/04/09 04:44:15;;;;;;;12.48;11.27;;;4.40;99.90;;;;;;5017131;28;20803;-83
2023/04/09 04:46:41;;;;;;;12.50;11.20;;;4.30;99.90;;;;;;5016710;28;20415;-82
2023/04/09 04:49:06;;;;;;;11.85;10.65;;;4.40;99.90;;;;;;5018980;28;20910;-83
2023/04/09 04:51:32;;;;;;;12.15;10.95;;;4.30;99.90;;;;;;5016902;28;20412;-82
2023/04/09 04:53:57;;;;;;;13.85;11.43;;;4.30;99.90;;;;;;5018263;28;20496;-83
2023/04/09 04:56:23;;;;;;;11.68;10.57;;;4.30;99.90;;;;;;5017035;28;20856;-83
2023/04/09 04:58:48;;;;;;;11.00;9.80;;;4.20;99.90;;;;;;5015045;28;20396;-83
2023/04/09 05:01:14;;;;;;;11.60;10.40;;;4.10;99.90;;;;;;5000124;28;20388;-83
2023/04/09 05:03:39;;;;;;;11.37;10.23;;;4.20;99.90;;;;;;5000670;28;20431;-83
2023/04/09 05:06:05;;;;;;;10.70;9.70;;;4.10;99.90;;;;;;4999324;28;20969;-83
2023/04/09 05:08:30;;;;;;;11.03;9.80;;;4.30;99.90;;;;;;5027025;28;20408;-83
2023/04/09 05:10:56;;;;;;;10.85;9.45;;;4.30;99.90;;;;;;5002490;28;20389;-82
2023/04/09 05:13:22;;;;;;;10.32;9.32;;;4.30;99.90;;;;;;5001182;28;20472;-83
2023/04/09 05:15:48;;;;;;;10.55;9.55;;;4.30;99.90;;;;;;5025495;28;20394;-83
2023/04/09 05:18:13;;;;;;;10.70;9.65;;;4.30;99.90;;;;;;5036398;28;20399;-83
2023/04/09 05:20:39;;;;;;;10.10;9.10;;;4.20;99.90;;;;;;5037906;28;20388;-82
2023/04/09 05:23:05;;;;;;;10.50;9.40;;;4.30;99.90;;;;;;5019624;28;20436;-82
2023/04/09 05:25:30;;;;;;;9.70;8.20;;;4.40;99.90;;;;;;5018810;28;20469;-84
2023/04/09 05:27:56;;;;;;;8.77;7.97;;;4.40;99.90;;;;;;5020148;28;20387;-83
2023/04/09 05:30:21;;;;;;;10.20;9.20;;;4.30;99.90;;;;;;5019750;28;20403;-83
2023/04/09 05:32:47;;;;;;;9.60;8.70;;;4.40;99.90;;;;;;5037760;28;20948;-82
2023/04/09 05:35:13;;;;;;;9.20;8.30;;;4.50;99.90;;;;;;5027320;28;20418;-83
2023/04/09 05:37:38;;;;;;;10.30;9.30;;;4.50;99.90;;;;;;5036429;28;20449;-82
2023/04/09 05:40:04;;;;;;;8.57;7.60;;;4.50;99.90;;;;;;5038688;28;20734;-83
2023/04/09 05:42:30;;;;;;;9.48;8.35;;;4.50;99.90;;;;;;5019743;28;20426;-83
2023/04/09 05:44:55;;;;;;;9.47;8.50;;;4.60;99.90;;;;;;5037396;28;20383;-83
2023/04/09 05:47:21;;;;;;;8.80;7.90;;;4.60;99.90;;;;;;5017912;28;20480;-83
2023/04/09 05:49:46;;;;;;;9.98;8.98;;;4.70;99.90;;;;;;5018159;28;20477;-83
2023/04/09 05:52:13;;;;;;;10.55;8.80;;;4.90;99.90;;;;;;5035185;28;20391;-83
2023/04/09 05:54:39;;;;;;;9.80;8.80;;;4.90;99.90;;;;;;5037407;28;20394;-83
2023/04/09 05:57:04;;;;;;;9.97;8.97;;;4.90;99.90;;;;;;5017764;28;20745;-83
2023/04/09 05:59:30;;;;;;;9.10;8.20;;;5.00;99.90;;;;;;5037071;28;20987;-83
2023/04/09 06:01:55;;;;;;;9.10;8.20;;;5.10;99.90;;;;;;5019478;28;20465;-83
2023/04/09 06:04:21;;;;;;;10.20;8.70;;;5.20;99.90;;;;;;5019060;28;20390;-82
2023/04/09 06:06:46;;;;;;;9.73;8.73;;;5.30;99.90;;;;;;5036100;28;20438;-83
2023/04/09 06:09:12;;;;;;;9.70;8.80;;;5.40;99.90;;;;;;5038377;28;20407;-83
2023/04/09 06:11:38;;;;;;;8.83;7.93;;;5.40;99.90;;;;;;5040003;28;20383;-82
2023/04/09 06:14:03;;;;;;;8.97;8.07;;;5.60;99.90;;;;;;5022300;28;20387;-82
2023/04/09 06:16:29;;;;;;;8.90;8.00;;;5.60;99.90;;;;;;5009893;28;20405;-83
2023/04/09 06:18:55;;;;;;;9.45;8.50;;;5.80;99.90;;;;;;5020377;28;20417;-82
2023/04/09 06:21:21;;;;;;;9.43;8.43;;;5.90;99.90;;;;;;5021104;28;20442;-82
2023/04/09 06:23:47;;;;;;;9.95;8.95;;;5.90;99.90;;;;;;5002678;28;20397;-83
2023/04/09 06:26:13;;;;;;;9.63;8.73;;;6.10;99.90;;;;;;5019484;28;20404;-82
2023/04/09 06:28:38;;;;;;;9.63;8.67;;;6.20;99.90;;;;;;5001941;28;20377;-82
2023/04/09 06:31:04;;;;;;;10.00;9.00;;;6.30;99.90;;;;;;5004530;28;20373;-82
2023/04/09 06:33:29;;;;;;;10.33;9.20;;;6.50;99.90;;;;;;5021224;28;20380;-82
2023/04/09 06:35:55;;;;;;;10.18;9.18;;;6.40;99.90;;;;;;5020381;28;20396;-82
2023/04/09 06:38:20;;;;;;;10.80;9.70;;;6.60;99.90;;;;;;5020835;28;20385;-82
2023/04/09 06:40:46;;;;;;;9.65;8.65;;;6.60;99.90;;;;;;5020641;28;20392;-82
2023/04/09 06:43:11;;;;;;;9.67;8.77;;;6.70;99.90;;;;;;5020721;28;20392;-82
2023/04/09 06:45:37;;;;;;;10.73;9.63;;;6.90;99.90;;;;;;5002548;28;20455;-82
2023/04/09 06:48:03;;;;;;;9.02;8.13;;;7.10;99.90;;;;;;5019857;28;20397;-83
2023/04/09 06:50:28;;;;;;;9.38;8.48;;;7.20;99.90;;;;;;5018919;28;20384;-82
2023/04/09 06:52:54;;;;;;;9.20;8.30;;;7.30;99.90;;;;;;5001454;28;20456;-83
2023/04/09 06:55:20;;;;;;;8.80;7.90;;;7.50;99.90;;;;;;5001450;28;20393;-83
2023/04/09 06:57:46;;;;;;;8.75;7.85;;;7.50;99.90;;;;;;5018243;28;20867;-82
2023/04/09 07:00:12;;;;;;;8.23;7.43;;;7.60;99.90;;;;;;5018961;28;20384;-82
2023/04/09 07:02:38;;;;;;;9.20;7.80;;;7.80;99.90;;;;;;5018966;28;20373;-82
2023/04/09 07:05:04;;;;;;;8.55;7.75;;;7.80;99.90;;;;;;5001663;28;20876;-83
2023/04/09 07:07:29;;;;;;;8.75;7.85;;;7.80;99.90;;;;;;5018928;28;20404;-82
2023/04/09 07:09:55;;;;;;;9.10;8.20;;;7.90;99.90;;;;;;5000606;28;20397;-82
2023/04/09 07:12:32;;;;;;;7.97;7.15;;;8.00;99.90;;;;;;5000197;28;20961;-83
2023/04/09 07:14:59;;;;;;;8.15;7.40;;;8.10;99.90;;;;;;5001177;28;20400;-82
2023/04/09 07:17:24;;;;;;;8.02;7.22;;;8.10;97.50;;;;;;5020907;28;20414;-82
2023/04/09 07:19:50;;;;;;;7.70;7.00;;;8.20;98.10;;;;;;5037883;28;20761;-83
2023/04/09 07:22:16;;;;;;;8.00;7.30;;;9.40;97.10;;;;;;5036562;28;20391;-83
2023/04/09 07:24:42;;;;;;;7.82;7.03;;;8.40;93.90;;;;;;5039677;28;20413;-82
2023/04/09 07:27:08;;;;;;;7.65;6.85;;;8.40;87.70;;;;;;5020611;28;20898;-83
2023/04/09 07:29:34;;;;;;;7.50;6.70;;;8.50;88.30;;;;;;5038618;28;20371;-83
2023/04/09 07:31:59;;;;;;;7.30;6.60;;;8.50;88.70;;;;;;5021585;28;20456;-83
2023/04/09 07:34:26;;;;;;;7.10;6.40;;;8.60;78.60;;;;;;5039700;28;20935;-82
2023/04/09 07:36:52;;;;;;;6.95;6.25;;;8.70;79.20;;;;;;5034948;28;20386;-83
2023/04/09 07:39:18;;;;;;;6.50;5.90;;;8.80;76.90;;;;;;5052739;28;20410;-83
2023/04/09 07:41:43;;;;;;;6.50;5.90;;;8.90;73.90;;;;;;5052299;28;20395;-83
2023/04/09 07:44:09;;;;;;;7.00;6.30;;;8.70;72.30;;;;;;5038268;28;20483;-83
2023/04/09 07:46:34;;;;;;;6.23;5.50;;;9.00;71.40;;;;;;5027089;28;20482;-83
2023/04/09 07:49:00;;;;;;;6.03;5.43;;;9.20;68.50;;;;;;5028375;28;20414;-83
2023/04/09 07:51:26;;;;;;;7.03;6.00;;;9.30;65.60;;;;;;5031145;28;20753;-82
2023/04/09 07:53:52;;;;;;;6.80;6.10;;;9.40;58.60;;;;;;5019750;28;20391;-82
2023/04/09 07:56:17;;;;;;;5.90;5.30;;;9.40;60.10;;;;;;5036826;28;20451;-83
2023/04/09 07:58:43;;;;;;;5.90;5.30;;;9.40;59.10;;;;;;4991033;28;20457;-82
2023/04/09 08:01:09;;;;;;;6.68;5.50;;;9.50;57.20;;;;;;4997181;28;20394;-82
2023/04/09 08:03:35;;;;;;;5.20;4.80;;;9.50;55.90;;;;;;4996870;28;20390;-82
2023/04/09 08:06:00;;;;;;;5.47;4.97;;;9.60;53.60;;;;;;4997518;28;20406;-83
2023/04/09 08:08:26;;;;;;;5.67;5.17;;;9.70;48.90;;;;;;4997904;28;20935;-83
2023/04/09 08:10:52;;;;;;;5.47;4.97;;;9.70;50.60;;;;;;4980292;28;20382;-82
2023/04/09 08:13:17;;;;;;;5.18;4.70;;;9.80;47.40;;;;;;4980402;28;20395;-83
2023/04/09 08:15:43;;;;;;;4.85;4.45;;;9.90;46.60;;;;;;5010653;28;20399;-82
2023/04/09 08:18:08;;;;;;;4.90;4.50;;;10.10;46.00;;;;;;5056474;22;20859;-77
2023/04/09 08:20:34;;;;;;;4.93;4.53;;;10.20;47.20;;;;;;5037791;28;20394;-77
2023/04/09 08:22:59;;;;;;;4.80;4.30;;;10.10;37.40;;;;;;5037024;28;20719;-77
2023/04/09 08:25:25;;;;;;;4.50;4.10;;;10.10;36.20;;;;;;5037598;28;20379;-77
2023/04/09 08:27:51;;;;;;;4.53;4.13;;;10.20;37.50;;;;;;5039141;28;20387;-77
2023/04/09 08:30:16;;;;;;;4.45;4.05;;;10.30;35.30;;;;;;5040286;28;20383;-77
2023/04/09 08:32:43;;;;;;;4.10;3.80;;;10.30;33.30;;;;;;5039808;28;20954;-77
2023/04/09 08:35:09;;;;;;;4.47;4.07;;;10.40;33.60;;;;;;5037523;28;20873;-78
2023/04/09 08:37:34;;;;;;;4.30;3.90;;;10.40;30.70;;;;;;5031992;28;20501;-78
2023/04/09 08:40:00;;;;;;;4.40;4.00;;;10.40;30.60;;;;;;5031688;28;20554;-77
2023/04/09 08:42:26;;;;;;;5.43;4.23;;;10.60;31.30;;;;;;5031767;28;20387;-77
2023/04/09 08:44:52;;;;;;;4.87;4.47;;;10.60;30.50;;;;;;5031886;28;20398;-77
2023/04/09 08:47:19;;;;;;;4.27;3.87;;;10.60;30.00;;;;;;5031496;28;20765;-77
2023/04/09 08:49:47;;;;;;;4.10;3.70;;;10.60;29.40;;;;;;5030471;28;20391;-77
2023/04/09 08:52:15;;;;;;;3.72;3.42;;;10.80;28.20;;;;;;5031209;28;20514;-77
2023/04/09 08:54:40;;;;;;;4.50;4.10;;;10.90;29.40;;;;;;5030794;28;20409;-77
2023/04/09 08:57:06;;;;;;;3.80;3.50;;;10.90;28.30;;;;;;5030595;28;20387;-78
2023/04/09 08:59:35;;;;;;;4.10;3.70;;;10.80;24.90;;;;;;5030811;28;20487;-77
2023/04/09 09:02:11;;;;;;;4.60;4.20;;;11.00;25.00;;;;;;5034908;28;20469;-78
2023/04/09 09:04:47;;;;;;;6.75;3.80;;;12.60;25.10;;;;;;5031322;28;20382;-77
2023/04/09 09:07:13;;;;;;;4.00;3.70;;;11.20;23.20;;;;;;5030904;28;20485;-77
2023/04/09 09:10:03;;;;;;;3.97;3.58;;;11.30;24.20;;;;;;5030876;28;20383;-77
2023/04/09 09:12:37;;;;;;;3.08;2.88;;;11.20;20.30;;;;;;5031113;28;20424;-77
2023/04/09 09:15:23;;;;;;;3.20;2.90;;;11.30;19.60;;;;;;5029487;28;20788;-77
2023/04/09 09:17:57;;;;;;;3.30;3.00;;;11.50;17.70;;;;;;5030395;28;20886;-78
2023/04/09 09:20:23;;;;;;;3.15;2.85;;;11.70;19.80;;;;;;5029706;28;20501;-78
2023/04/09 09:22:51;;;;;;;3.20;2.90;;;11.70;19.20;;;;;;5029877;28;20796;-77
2023/04/09 09:25:16;;;;;;;3.38;3.08;;;11.90;19.50;;;;;;5030879;28;20433;-77
2023/04/09 09:27:42;;;;;;;3.10;2.90;;;11.70;13.20;;;;;;5031317;28;20407;-77
2023/04/09 09:30:19;;;;;;;3.40;3.10;;;11.80;14.80;;;;;;5030778;28;20383;-77
2023/04/09 09:32:44;;;;;;;3.10;2.90;;;11.80;15.20;;;;;;5030957;28;20382;-77
2023/04/09 09:35:10;;;;;;;3.40;3.10;;;11.90;16.30;;;;;;5031193;28;20417;-77
2023/04/09 09:37:35;;;;;;;3.35;2.90;;;12.00;16.20;;;;;;5029383;28;20907;-77
2023/04/09 09:40:02;;;;;;;3.60;3.30;;;12.10;15.10;;;;;;5030912;28;20482;-78
2023/04/09 09:42:28;;;;;;;2.85;2.65;;;12.20;15.70;;;;;;5031067;28;20680;-77
2023/04/09 09:44:54;;;;;;;3.20;2.90;;;12.30;14.80;;;;;;5033907;28;20442;-77
2023/04/09 09:47:20;;;;;;;2.83;2.60;;;12.40;13.00;;;;;;5035020;28;20429;-78
2023/04/09 09:49:50;;;;;;;2.80;2.60;;;11.90;13.00;;;;;;5034693;28;20383;-77
2023/04/09 09:52:23;;;;;;;2.80;2.60;;;12.50;12.00;;;;;;5034847;28;20533;-77
2023/04/09 09:54:52;;;;;;;2.90;2.70;;;12.60;13.30;;;;;;5034855;28;20430;-78
2023/04/09 09:57:19;;;;;;;2.90;2.70;;;12.50;10.70;;;;;;5032772;28;20398;-77
2023/04/09 09:59:59;;;;;;;3.30;3.00;;;12.70;12.40;;;;;;5034690;28;20897;-77
2023/04/09 10:02:29;;;;;;;3.00;2.70;;;12.60;9.60;;;;;;5034863;28;20391;-77
2023/04/09 10:04:59;;;;;;;2.65;2.40;;;12.90;12.40;;;;;;5035269;28;20397;-77
2023/04/09 10:07:25;;;;;;;2.20;2.00;;;13.00;10.00;;;;;;5033286;28;20495;-78
2023/04/09 10:09:53;;;;;;;2.50;2.30;;;13.20;13.20;;;;;;5034318;28;20470;-77
2023/04/09 10:12:22;;;;;;;2.70;2.50;;;13.30;10.60;;;;;;5034039;28;20387;-78
2023/04/09 10:14:49;;;;;;;2.92;2.72;;;13.30;11.00;;;;;;5034611;28;20466;-78
2023/04/09 10:17:16;;;;;;;2.80;2.60;;;13.20;8.20;;;;;;5033495;28;20816;-78
2023/04/09 10:19:48;;;;;;;3.13;2.83;;;13.10;6.80;;;;;;5033164;28;20387;-77
2023/04/09 10:22:18;;;;;;;2.60;2.40;;;13.20;9.60;;;;;;5034200;28;20387;-78
2023/04/09 10:24:45;;;;;;;2.97;2.67;;;13.40;8.40;;;;;;5032921;28;20391;-78
2023/04/09 10:27:14;;;;;;;2.50;2.30;;;13.60;10.10;;;;;;5033779;28;20490;-78
2023/04/09 10:29:50;;;;;;;2.58;2.38;;;13.70;8.60;;;;;;5034054;28;20390;-77
2023/04/09 10:32:22;;;;;;;2.60;2.40;;;13.80;4.90;;;;;;5033800;28;20382;-77
2023/04/09 10:34:49;;;;;;;2.83;2.63;;;13.50;6.70;;;;;;5032798;28;20391;-77
2023/04/09 10:37:24;;;;;;;2.20;2.00;;;13.60;6.30;;;;;;5032286;28;20395;-77
2023/04/09 10:39:51;;;;;;;2.47;2.27;;;13.90;6.20;;;;;;5032751;28;20422;-78
2023/04/09 10:42:26;;;;;;;2.65;2.45;;;13.90;6.30;;;;;;5034168;28;20425;-78
2023/04/09 10:45:07;;;;;;;2.88;2.65;;;13.90;5.50;;;;;;5033686;28;20402;-78
2023/04/09 10:47:35;;;;;;;2.90;2.70;;;14.10;6.40;;;;;;5033699;28;20399;-78
2023/04/09 10:50:29;;;;;;;3.00;2.80;;;14.20;6.70;;;;;;5033849;28;20417;-78
2023/04/09 10:52:57;;;;;;;3.50;3.20;;;14.40;6.40;;;;;;5033731;28;20384;-78
2023/04/09 10:55:37;;;;;;;3.40;2.80;;;14.30;4.50;;;;;;5031455;28;20426;-78
2023/04/09 10:58:10;;;;;;;3.40;3.10;;;14.30;4.70;;;;;;5033056;28;20391;-78
2023/04/09 11:00:41;;;;;;;2.90;2.70;;;14.70;4.30;;;;;;5034602;28;20787;-79
2023/04/09 11:03:21;;;;;;;2.78;2.58;;;14.90;4.60;;;;;;5033408;28;20390;-78
2023/04/09 11:06:11;;;;;;;2.83;2.63;;;14.90;4.60;;;;;;5032588;28;20844;-78
2023/04/09 11:08:37;;;;;;;3.20;2.90;;;14.70;3.20;;;;;;5024472;28;20395;-77
2023/04/09 11:11:03;;;;;;;3.22;2.92;;;15.00;3.00;;;;;;5032613;28;20383;-77
2023/04/09 11:13:30;;;;;;;3.10;2.90;;;15.20;3.10;;;;;;5031261;28;20388;-77
2023/04/09 11:15:57;;;;;;;3.42;3.22;;;15.00;1.10;;;;;;5024026;28;20399;-78
2023/04/09 11:18:28;;;;;;;3.20;3.00;;;15.20;2.70;;;;;;5024822;28;20475;-78
2023/04/09 11:20:58;;;;;;;2.75;2.55;;;15.60;2.00;;;;;;5032729;28;20817;-78
2023/04/09 11:23:25;;;;;;;3.28;2.97;;;15.80;3.30;;;;;;5028167;28;20904;-78
2023/04/09 11:25:51;;;;;;;3.07;2.77;;;15.90;1.30;;;;;;5034190;28;20941;-78
2023/04/09 11:28:17;;;;;;;3.25;2.50;;;15.80;1.00;;;;;;5034320;28;20853;-77
2023/04/09 11:30:45;;;;;;;2.80;2.60;;;16.60;1.00;;;;;;5037570;28;20397;-78
2023/04/09 11:33:11;;;;;;;2.80;2.60;;;16.70;1.00;;;;;;5033386;28;20383;-78
2023/04/09 11:35:37;;;;;;;3.07;2.87;;;17.30;1.00;;;;;;5033096;28;20797;-78
2023/04/09 11:38:07;;;;;;;2.70;2.50;;;17.70;1.00;;;;;;5033246;28;20434;-78
2023/04/09 11:40:33;;;;;;;3.05;2.85;;;18.70;1.00;;;;;;5032895;28;20383;-78
2023/04/09 11:42:59;;;;;;;2.60;2.40;;;18.10;1.00;;;;;;5035214;28;20809;-78
2023/04/09 11:45:27;;;;;;;3.20;3.00;;;18.70;1.00;;;;;;5036620;28;20445;-78
2023/04/09 11:47:53;;;;;;;2.90;2.70;;;19.30;1.00;;;;;;5034433;28;20393;-77
2023/04/09 11:50:20;;;;;;;2.72;2.53;;;18.70;1.00;;;;;;5032523;28;20391;-77
2023/04/09 11:52:46;;;;;;;2.90;2.70;;;18.70;1.00;;;;;;5031425;28;20444;-77
2023/04/09 11:55:21;;;;;;;2.92;2.72;;;19.70;1.00;;;;;;5031491;28;20394;-79
2023/04/09 11:57:47;;;;;;;2.80;2.60;;;19.60;1.00;;;;;;5032477;28;20451;-77
2023/04/09 12:00:13;;;;;;;2.70;2.50;;;19.50;1.00;;;;;;5032074;28;20387;-78
2023/04/09 12:02:49;;;;;;;2.97;2.77;;;19.80;1.00;;;;;;5032101;28;20402;-78
2023/04/09 12:05:23;;;;;;;2.80;2.60;;;20.60;1.00;;;;;;5032156;28;20402;-78
2023/04/09 12:07:49;;;;;;;2.90;2.70;;;19.10;1.00;;;;;;5030899;28;20462;-77
2023/04/09 12:10:15;;;;;;;3.10;2.90;;;19.30;1.00;;;;;;5031618;28;20539;-78
2023/04/09 12:12:46;;;;;;;2.90;2.70;;;19.70;1.00;;;;;;5031733;28;20924;-77
2023/04/09 12:15:24;;;;;;;2.80;2.60;;;19.60;1.00;;;;;;5032390;28;20881;-77
2023/04/09 12:17:54;;;;;;;2.90;2.70;;;19.80;1.00;;;;;;5031270;28;20401;-77
2023/04/09 12:20:34;;;;;;;2.92;2.72;;;20.30;1.00;;;;;;5032537;28;20386;-77
2023/04/09 12:23:02;;;;;;;2.97;2.78;;;20.20;1.00;;;;;;5033157;28;20379;-78
2023/04/09 12:25:29;;;;;;;2.70;2.50;;;20.40;1.00;;;;;;5032457;28;20384;-79
2023/04/09 12:27:55;;;;;;;2.80;2.60;;;20.80;1.00;;;;;;5032952;28;20379;-79
2023/04/09 12:30:22;;;;;;;2.40;2.20;;;21.00;1.00;;;;;;5031750;28;20403;-78
2023/04/09 12:32:47;;;;;;;2.80;2.60;;;19.40;1.00;;;;;;5033383;28;20394;-78
2023/04/09 12:35:14;;;;;;;2.70;2.50;;;20.20;1.00;;;;;;5033572;28;20390;-78
2023/04/09 12:37:40;;;;;;;2.90;2.70;;;20.30;1.00;;;;;;5032508;28;20486;-78
2023/04/09 12:40:06;;;;;;;2.70;2.50;;;20.80;1.00;;;;;;5032240;28;20387;-79
2023/04/09 12:42:32;;;;;;;2.53;2.33;;;21.80;1.00;;;;;;5032263;28;20383;-78
2023/04/09 12:44:57;;;;;;;2.67;2.47;;;21.20;1.00;;;;;;5032298;28;20805;-79
2023/04/09 12:47:23;;;;;;;2.50;2.30;;;21.60;1.00;;;;;;5032716;28;20856;-78
2023/04/09 12:49:49;;;;;;;2.50;2.30;;;21.60;1.00;;;;;;5032343;28;20422;-78
2023/04/09 12:52:15;;;;;;;2.30;2.20;;;20.40;1.00;;;;;;5031115;28;20387;-78